Time;durP1;ratioP1;P1;durP2;ratioP2;P2;SDS_P1;SDS_P2;PMS_P1;PMS_P2;Temp;Humidity;BMP_temperature;BMP_pressure;BME280_temperature;BME280_humidity;BME280_pressure;Samples;Min_cycle;Max_cycle;Signal;HPM_P1;HPM_P2
2022/03/27 00:00:00;;;;;;;9.9;6.7;;;;;;;11.1;100.0;102930;;;;
2022/03/27 00:01:00;;;;;;;9.9;6.7;;;;;;;11.1;100.0;102920;;;;
2022/03/27 00:02:00;;;;;;;9.9;6.7;;;;;;;11.1;100.0;102920;;;;
2022/03/27 00:03:00;;;;;;;9.9;6.7;;;;;;;11.1;100.0;102920;;;;
2022/03/27 00:04:00;;;;;;;9.9;6.7;;;;;;;11.1;100.0;102920;;;;
2022/03/27 00:05:00;;;;;;;9.9;6.7;;;;;;;11.0;100.0;102930;;;;
2022/03/27 00:06:00;;;;;;;9.9;6.7;;;;;;;11.0;100.0;102930;;;;
2022/03/27 00:07:00;;;;;;;9.9;6.7;;;;;;;11.0;100.0;102930;;;;
2022/03/27 00:08:00;;;;;;;7.9;7.2;;;;;;;11.0;100.0;102930;;;;
2022/03/27 00:09:00;;;;;;;7.9;7.2;;;;;;;11.0;100.0;102930;;;;
2022/03/27 00:10:00;;;;;;;7.9;7.2;;;;;;;11.0;100.0;102930;;;;
2022/03/27 00:12:00;;;;;;;7.9;7.2;;;;;;;10.8;100.0;102930;;;;
2022/03/27 00:13:00;;;;;;;7.9;7.2;;;;;;;10.9;100.0;102930;;;;
2022/03/27 00:14:01;;;;;;;7.9;7.2;;;;;;;10.9;100.0;102930;;;;
2022/03/27 00:15:01;;;;;;;7.9;7.2;;;;;;;10.8;100.0;102920;;;;
2022/03/27 00:16:00;;;;;;;7.9;7.2;;;;;;;10.8;100.0;102920;;;;
2022/03/27 00:17:00;;;;;;;7.9;7.2;;;;;;;10.9;100.0;102920;;;;
2022/03/27 00:18:00;;;;;;;7.9;7.2;;;;;;;10.9;100.0;102920;;;;
2022/03/27 00:19:00;;;;;;;7.9;7.2;;;;;;;10.9;100.0;102920;;;;
2022/03/27 00:20:01;;;;;;;7.9;7.2;;;;;;;10.9;100.0;102920;;;;
2022/03/27 00:21:00;;;;;;;7.9;7.2;;;;;;;10.7;100.0;102920;;;;
2022/03/27 00:22:00;;;;;;;7.9;7.2;;;;;;;10.7;100.0;102920;;;;
2022/03/27 00:23:00;;;;;;;7.9;7.2;;;;;;;10.7;100.0;102920;;;;
2022/03/27 00:24:01;;;;;;;7.9;7.2;;;;;;;10.7;100.0;102920;;;;
2022/03/27 00:25:00;;;;;;;7.9;7.2;;;;;;;10.6;100.0;102920;;;;
2022/03/27 00:26:00;;;;;;;7.9;7.2;;;;;;;10.6;100.0;102920;;;;
2022/03/27 00:27:00;;;;;;;7.9;7.2;;;;;;;10.6;100.0;102920;;;;
2022/03/27 00:28:00;;;;;;;8.6;7.7;;;;;;;10.6;100.0;102920;;;;
2022/03/27 00:29:00;;;;;;;8.6;7.7;;;;;;;10.7;100.0;102920;;;;
2022/03/27 00:30:00;;;;;;;8.6;7.7;;;;;;;10.7;100.0;102920;;;;
2022/03/27 00:31:00;;;;;;;8.6;7.7;;;;;;;10.7;100.0;102920;;;;
2022/03/27 00:32:00;;;;;;;8.6;7.7;;;;;;;10.7;100.0;102920;;;;
2022/03/27 00:33:00;;;;;;;8.6;7.7;;;;;;;10.6;100.0;102920;;;;
2022/03/27 00:34:00;;;;;;;8.6;7.7;;;;;;;10.6;100.0;102920;;;;
2022/03/27 00:35:00;;;;;;;8.6;7.7;;;;;;;10.7;100.0;102930;;;;
2022/03/27 00:36:00;;;;;;;8.6;7.7;;;;;;;10.7;100.0;102930;;;;
2022/03/27 00:37:00;;;;;;;8.6;7.7;;;;;;;10.7;100.0;102920;;;;
2022/03/27 00:38:00;;;;;;;8.6;7.7;;;;;;;10.7;100.0;102920;;;;
2022/03/27 00:39:00;;;;;;;8.6;7.7;;;;;;;10.7;100.0;102930;;;;
2022/03/27 00:40:00;;;;;;;8.6;7.7;;;;;;;10.7;100.0;102930;;;;
2022/03/27 00:41:01;;;;;;;8.6;7.7;;;;;;;10.7;100.0;102920;;;;
2022/03/27 00:42:00;;;;;;;8.6;7.7;;;;;;;10.7;100.0;102920;;;;
2022/03/27 00:43:00;;;;;;;8.6;7.7;;;;;;;10.7;100.0;102930;;;;
2022/03/27 00:44:00;;;;;;;8.6;7.7;;;;;;;10.7;100.0;102930;;;;
2022/03/27 00:45:00;;;;;;;8.6;7.7;;;;;;;10.7;100.0;102920;;;;
2022/03/27 00:46:00;;;;;;;8.6;7.7;;;;;;;10.7;100.0;102920;;;;
2022/03/27 00:47:00;;;;;;;8.6;7.7;;;;;;;10.7;100.0;102920;;;;
2022/03/27 00:48:00;;;;;;;7.8;7.1;;;;;;;10.7;100.0;102920;;;;
2022/03/27 00:49:00;;;;;;;7.8;7.1;;;;;;;10.8;100.0;102930;;;;
2022/03/27 00:50:00;;;;;;;7.8;7.1;;;;;;;10.8;100.0;102930;;;;
2022/03/27 00:51:00;;;;;;;7.8;7.1;;;;;;;10.7;100.0;102920;;;;
2022/03/27 00:52:00;;;;;;;7.8;7.1;;;;;;;10.7;100.0;102920;;;;
2022/03/27 00:53:00;;;;;;;7.8;7.1;;;;;;;10.8;100.0;102930;;;;
2022/03/27 00:54:00;;;;;;;7.8;7.1;;;;;;;10.8;100.0;102930;;;;
2022/03/27 00:55:00;;;;;;;7.8;7.1;;;;;;;10.8;100.0;102930;;;;
2022/03/27 00:56:00;;;;;;;7.8;7.1;;;;;;;10.8;100.0;102930;;;;
2022/03/27 00:57:00;;;;;;;7.8;7.1;;;;;;;10.8;100.0;102930;;;;
2022/03/27 00:58:01;;;;;;;7.8;7.1;;;;;;;10.8;100.0;102930;;;;
2022/03/27 00:59:00;;;;;;;7.8;7.1;;;;;;;10.8;100.0;102930;;;;
2022/03/27 01:00:00;;;;;;;7.8;7.1;;;;;;;10.8;100.0;102930;;;;
2022/03/27 01:01:11;;;;;;;7.8;7.1;;;;;;;10.8;100.0;102920;;;;
2022/03/27 01:02:01;;;;;;;7.8;7.1;;;;;;;10.8;100.0;102920;;;;
2022/03/27 01:03:00;;;;;;;7.8;7.1;;;;;;;10.8;100.0;102920;;;;
2022/03/27 01:04:00;;;;;;;7.8;7.1;;;;;;;10.8;100.0;102920;;;;
2022/03/27 01:05:07;;;;;;;7.8;7.1;;;;;;;10.8;100.0;102920;;;;
2022/03/27 01:06:00;;;;;;;7.8;7.1;;;;;;;10.8;100.0;102920;;;;
2022/03/27 01:07:00;;;;;;;7.8;7.1;;;;;;;10.8;100.0;102920;;;;
2022/03/27 01:08:01;;;;;;;8.9;7.3;;;;;;;10.8;100.0;102920;;;;
2022/03/27 01:10:00;;;;;;;8.9;7.3;;;;;;;10.8;100.0;102920;;;;
2022/03/27 01:11:00;;;;;;;8.9;7.3;;;;;;;10.7;100.0;102920;;;;
2022/03/27 01:12:05;;;;;;;8.9;7.3;;;;;;;10.7;100.0;102920;;;;
2022/03/27 01:13:04;;;;;;;8.9;7.3;;;;;;;10.6;100.0;102920;;;;
2022/03/27 01:14:00;;;;;;;8.9;7.3;;;;;;;10.6;100.0;102920;;;;
2022/03/27 01:15:02;;;;;;;8.9;7.3;;;;;;;10.6;100.0;102920;;;;
2022/03/27 01:16:00;;;;;;;8.9;7.3;;;;;;;10.6;100.0;102920;;;;
2022/03/27 01:17:04;;;;;;;8.9;7.3;;;;;;;10.6;100.0;102920;;;;
2022/03/27 01:18:00;;;;;;;8.9;7.3;;;;;;;10.6;100.0;102920;;;;
2022/03/27 01:19:00;;;;;;;8.9;7.3;;;;;;;10.6;100.0;102920;;;;
2022/03/27 01:20:03;;;;;;;8.9;7.3;;;;;;;10.6;100.0;102920;;;;
2022/03/27 01:21:00;;;;;;;8.9;7.3;;;;;;;10.6;100.0;102920;;;;
2022/03/27 01:22:00;;;;;;;8.9;7.3;;;;;;;10.6;100.0;102920;;;;
2022/03/27 01:23:01;;;;;;;8.9;7.3;;;;;;;10.6;100.0;102920;;;;
2022/03/27 01:24:00;;;;;;;8.9;7.3;;;;;;;10.6;100.0;102920;;;;
2022/03/27 01:25:00;;;;;;;8.9;7.3;;;;;;;10.4;100.0;102920;;;;
2022/03/27 01:26:00;;;;;;;8.9;7.3;;;;;;;10.4;100.0;102920;;;;
2022/03/27 01:27:00;;;;;;;8.9;7.3;;;;;;;10.4;100.0;102920;;;;
2022/03/27 01:28:00;;;;;;;9.1;8.2;;;;;;;10.4;100.0;102920;;;;
2022/03/27 01:29:00;;;;;;;9.1;8.2;;;;;;;10.5;100.0;102920;;;;
2022/03/27 01:30:00;;;;;;;9.1;8.2;;;;;;;10.5;100.0;102920;;;;
2022/03/27 01:31:00;;;;;;;9.1;8.2;;;;;;;10.4;100.0;102920;;;;
2022/03/27 01:32:01;;;;;;;9.1;8.2;;;;;;;10.4;100.0;102920;;;;
2022/03/27 01:33:00;;;;;;;9.1;8.2;;;;;;;10.4;100.0;102920;;;;
2022/03/27 01:34:00;;;;;;;9.1;8.2;;;;;;;10.4;100.0;102920;;;;
2022/03/27 01:35:00;;;;;;;9.1;8.2;;;;;;;10.4;100.0;102920;;;;
2022/03/27 01:36:00;;;;;;;9.1;8.2;;;;;;;10.4;100.0;102920;;;;
2022/03/27 01:37:01;;;;;;;9.1;8.2;;;;;;;10.4;100.0;102920;;;;
2022/03/27 01:38:00;;;;;;;9.1;8.2;;;;;;;10.4;100.0;102920;;;;
2022/03/27 01:39:01;;;;;;;9.1;8.2;;;;;;;10.4;100.0;102920;;;;
2022/03/27 01:40:00;;;;;;;9.1;8.2;;;;;;;10.4;100.0;102920;;;;
2022/03/27 01:41:00;;;;;;;9.1;8.2;;;;;;;10.4;100.0;102920;;;;
2022/03/27 01:42:00;;;;;;;9.1;8.2;;;;;;;10.4;100.0;102920;;;;
2022/03/27 01:43:00;;;;;;;9.1;8.2;;;;;;;10.4;100.0;102920;;;;
2022/03/27 01:44:00;;;;;;;9.1;8.2;;;;;;;10.4;100.0;102920;;;;
2022/03/27 01:45:00;;;;;;;9.1;8.2;;;;;;;10.5;100.0;102920;;;;
2022/03/27 01:46:00;;;;;;;9.1;8.2;;;;;;;10.5;100.0;102920;;;;
2022/03/27 01:47:01;;;;;;;9.1;8.2;;;;;;;10.5;100.0;102920;;;;
2022/03/27 01:48:00;;;;;;;9.5;8.6;;;;;;;10.5;100.0;102920;;;;
2022/03/27 01:49:00;;;;;;;9.5;8.6;;;;;;;10.6;100.0;102920;;;;
2022/03/27 01:50:01;;;;;;;9.5;8.6;;;;;;;10.6;100.0;102920;;;;
2022/03/27 01:51:00;;;;;;;9.5;8.6;;;;;;;10.5;100.0;102920;;;;
2022/03/27 01:52:00;;;;;;;9.5;8.6;;;;;;;10.5;100.0;102920;;;;
2022/03/27 01:53:00;;;;;;;9.5;8.6;;;;;;;10.5;100.0;102920;;;;
2022/03/27 01:54:00;;;;;;;9.5;8.6;;;;;;;10.5;100.0;102920;;;;
2022/03/27 01:55:00;;;;;;;9.5;8.6;;;;;;;10.5;100.0;102920;;;;
2022/03/27 01:56:00;;;;;;;9.5;8.6;;;;;;;10.5;100.0;102920;;;;
2022/03/27 01:57:01;;;;;;;9.5;8.6;;;;;;;10.4;100.0;102910;;;;
2022/03/27 01:58:00;;;;;;;9.5;8.6;;;;;;;10.4;100.0;102910;;;;
2022/03/27 01:59:00;;;;;;;9.5;8.6;;;;;;;10.5;100.0;102910;;;;
2022/03/27 02:00:00;;;;;;;9.5;8.6;;;;;;;10.5;100.0;102910;;;;
2022/03/27 02:01:00;;;;;;;9.5;8.6;;;;;;;10.4;100.0;102910;;;;
2022/03/27 02:02:00;;;;;;;9.5;8.6;;;;;;;10.4;100.0;102910;;;;
2022/03/27 02:03:00;;;;;;;9.5;8.6;;;;;;;10.2;100.0;102910;;;;
2022/03/27 02:04:00;;;;;;;9.5;8.6;;;;;;;10.2;100.0;102910;;;;
2022/03/27 02:05:01;;;;;;;9.5;8.6;;;;;;;10.1;100.0;102910;;;;
2022/03/27 02:06:01;;;;;;;9.5;8.6;;;;;;;10.1;100.0;102910;;;;
2022/03/27 02:07:00;;;;;;;9.5;8.6;;;;;;;10.2;100.0;102910;;;;
2022/03/27 02:08:10;;;;;;;13.4;12.1;;;;;;;10.3;100.0;102900;;;;
2022/03/27 02:09:00;;;;;;;13.4;12.1;;;;;;;10.3;100.0;102900;;;;
2022/03/27 02:10:00;;;;;;;13.4;12.1;;;;;;;10.3;100.0;102900;;;;
2022/03/27 02:11:00;;;;;;;13.4;12.1;;;;;;;10.2;100.0;102910;;;;
2022/03/27 02:12:00;;;;;;;13.4;12.1;;;;;;;10.2;100.0;102910;;;;
2022/03/27 02:13:00;;;;;;;13.4;12.1;;;;;;;10.1;100.0;102900;;;;
2022/03/27 02:14:00;;;;;;;13.4;12.1;;;;;;;10.1;100.0;102900;;;;
2022/03/27 02:15:00;;;;;;;13.4;12.1;;;;;;;10.2;100.0;102910;;;;
2022/03/27 02:16:01;;;;;;;13.4;12.1;;;;;;;10.2;100.0;102910;;;;
2022/03/27 02:17:00;;;;;;;13.4;12.1;;;;;;;9.9;100.0;102910;;;;
2022/03/27 02:18:02;;;;;;;13.4;12.1;;;;;;;9.9;100.0;102910;;;;
2022/03/27 02:19:00;;;;;;;13.4;12.1;;;;;;;10.0;100.0;102910;;;;
2022/03/27 02:20:00;;;;;;;13.4;12.1;;;;;;;10.0;100.0;102910;;;;
2022/03/27 02:21:00;;;;;;;13.4;12.1;;;;;;;10.1;100.0;102910;;;;
2022/03/27 02:22:00;;;;;;;13.4;12.1;;;;;;;10.1;100.0;102910;;;;
2022/03/27 02:23:00;;;;;;;13.4;12.1;;;;;;;9.9;100.0;102910;;;;
2022/03/27 02:24:03;;;;;;;13.4;12.1;;;;;;;9.9;100.0;102910;;;;
2022/03/27 02:25:00;;;;;;;13.4;12.1;;;;;;;10.0;100.0;102910;;;;
2022/03/27 02:26:00;;;;;;;13.4;12.1;;;;;;;10.0;100.0;102910;;;;
2022/03/27 02:27:00;;;;;;;13.4;12.1;;;;;;;9.9;100.0;102920;;;;
2022/03/27 02:28:00;;;;;;;15.8;14.3;;;;;;;9.9;100.0;102920;;;;
2022/03/27 02:29:00;;;;;;;15.8;14.3;;;;;;;9.8;100.0;102910;;;;
2022/03/27 02:30:00;;;;;;;15.8;14.3;;;;;;;9.8;100.0;102910;;;;
2022/03/27 02:31:00;;;;;;;15.8;14.3;;;;;;;9.7;100.0;102920;;;;
2022/03/27 02:32:02;;;;;;;15.8;14.3;;;;;;;9.7;100.0;102920;;;;
2022/03/27 02:33:00;;;;;;;15.8;14.3;;;;;;;9.7;100.0;102920;;;;
2022/03/27 02:34:00;;;;;;;15.8;14.3;;;;;;;9.7;100.0;102920;;;;
2022/03/27 02:35:00;;;;;;;15.8;14.3;;;;;;;9.7;100.0;102920;;;;
2022/03/27 02:36:00;;;;;;;15.8;14.3;;;;;;;9.7;100.0;102920;;;;
2022/03/27 02:37:00;;;;;;;15.8;14.3;;;;;;;9.6;100.0;102920;;;;
2022/03/27 02:38:04;;;;;;;15.8;14.3;;;;;;;9.6;100.0;102920;;;;
2022/03/27 02:39:00;;;;;;;15.8;14.3;;;;;;;9.5;100.0;102930;;;;
2022/03/27 02:40:00;;;;;;;15.8;14.3;;;;;;;9.5;100.0;102930;;;;
2022/03/27 02:41:00;;;;;;;15.8;14.3;;;;;;;9.6;100.0;102920;;;;
2022/03/27 02:42:00;;;;;;;15.8;14.3;;;;;;;9.6;100.0;102920;;;;
2022/03/27 02:43:00;;;;;;;15.8;14.3;;;;;;;9.4;100.0;102920;;;;
2022/03/27 02:44:00;;;;;;;15.8;14.3;;;;;;;9.4;100.0;102920;;;;
2022/03/27 02:45:00;;;;;;;15.8;14.3;;;;;;;9.3;100.0;102920;;;;
2022/03/27 02:46:00;;;;;;;15.8;14.3;;;;;;;9.3;100.0;102920;;;;
2022/03/27 02:47:00;;;;;;;15.8;14.3;;;;;;;9.3;100.0;102920;;;;
2022/03/27 02:48:00;;;;;;;17.6;15.9;;;;;;;9.3;100.0;102920;;;;
2022/03/27 02:49:00;;;;;;;17.6;15.9;;;;;;;9.3;100.0;102920;;;;
2022/03/27 02:50:00;;;;;;;17.6;15.9;;;;;;;9.3;100.0;102920;;;;
2022/03/27 02:51:00;;;;;;;17.6;15.9;;;;;;;9.4;100.0;102920;;;;
2022/03/27 02:52:00;;;;;;;17.6;15.9;;;;;;;9.4;100.0;102920;;;;
2022/03/27 02:53:00;;;;;;;17.6;15.9;;;;;;;9.5;100.0;102920;;;;
2022/03/27 02:54:00;;;;;;;17.6;15.9;;;;;;;9.5;100.0;102920;;;;
2022/03/27 02:55:00;;;;;;;17.6;15.9;;;;;;;9.5;100.0;102920;;;;
2022/03/27 02:56:00;;;;;;;17.6;15.9;;;;;;;9.5;100.0;102920;;;;
2022/03/27 02:57:00;;;;;;;17.6;15.9;;;;;;;9.2;100.0;102920;;;;
2022/03/27 02:58:00;;;;;;;17.6;15.9;;;;;;;9.2;100.0;102920;;;;
2022/03/27 02:59:00;;;;;;;17.6;15.9;;;;;;;9.2;100.0;102920;;;;
2022/03/27 03:00:00;;;;;;;17.6;15.9;;;;;;;9.2;100.0;102920;;;;
2022/03/27 03:01:00;;;;;;;17.6;15.9;;;;;;;9.3;100.0;102920;;;;
2022/03/27 03:02:02;;;;;;;17.6;15.9;;;;;;;9.3;100.0;102920;;;;
2022/03/27 03:03:00;;;;;;;17.6;15.9;;;;;;;9.4;100.0;102920;;;;
2022/03/27 03:04:02;;;;;;;17.6;15.9;;;;;;;9.4;100.0;102920;;;;
2022/03/27 03:05:00;;;;;;;17.6;15.9;;;;;;;9.2;100.0;102920;;;;
2022/03/27 03:06:01;;;;;;;17.6;15.9;;;;;;;9.2;100.0;102920;;;;
2022/03/27 03:07:00;;;;;;;17.6;15.9;;;;;;;9.2;100.0;102920;;;;
2022/03/27 03:08:01;;;;;;;19.4;17.6;;;;;;;9.2;100.0;102920;;;;
2022/03/27 03:09:00;;;;;;;19.4;17.6;;;;;;;9.2;100.0;102910;;;;
2022/03/27 03:10:02;;;;;;;19.4;17.6;;;;;;;9.2;100.0;102910;;;;
2022/03/27 03:11:00;;;;;;;19.4;17.6;;;;;;;9.2;100.0;102910;;;;
2022/03/27 03:12:00;;;;;;;19.4;17.6;;;;;;;9.2;100.0;102910;;;;
2022/03/27 03:13:00;;;;;;;19.4;17.6;;;;;;;9.2;100.0;102910;;;;
2022/03/27 03:14:10;;;;;;;19.4;17.6;;;;;;;9.3;100.0;102900;;;;
2022/03/27 03:15:00;;;;;;;19.4;17.6;;;;;;;9.3;100.0;102900;;;;
2022/03/27 03:16:00;;;;;;;19.4;17.6;;;;;;;9.3;100.0;102900;;;;
2022/03/27 03:17:00;;;;;;;19.4;17.6;;;;;;;9.2;100.0;102910;;;;
2022/03/27 03:18:00;;;;;;;19.4;17.6;;;;;;;9.2;100.0;102910;;;;
2022/03/27 03:19:00;;;;;;;19.4;17.6;;;;;;;9.4;100.0;102910;;;;
2022/03/27 03:20:00;;;;;;;19.4;17.6;;;;;;;9.4;100.0;102910;;;;
2022/03/27 03:21:00;;;;;;;19.4;17.6;;;;;;;9.4;100.0;102900;;;;
2022/03/27 03:22:00;;;;;;;19.4;17.6;;;;;;;9.4;100.0;102900;;;;
2022/03/27 03:23:00;;;;;;;19.4;17.6;;;;;;;9.5;100.0;102910;;;;
2022/03/27 03:24:00;;;;;;;19.4;17.6;;;;;;;9.5;100.0;102910;;;;
2022/03/27 03:25:00;;;;;;;19.4;17.6;;;;;;;9.6;100.0;102910;;;;
2022/03/27 03:26:09;;;;;;;19.4;17.6;;;;;;;9.4;100.0;102900;;;;
2022/03/27 03:27:00;;;;;;;19.4;17.6;;;;;;;9.4;100.0;102900;;;;
2022/03/27 03:28:00;;;;;;;19.6;17.8;;;;;;;9.4;100.0;102900;;;;
2022/03/27 03:29:00;;;;;;;19.6;17.8;;;;;;;9.4;100.0;102900;;;;
2022/03/27 03:30:00;;;;;;;19.6;17.8;;;;;;;9.4;100.0;102900;;;;
2022/03/27 03:31:00;;;;;;;19.6;17.8;;;;;;;9.3;100.0;102900;;;;
2022/03/27 03:32:00;;;;;;;19.6;17.8;;;;;;;9.3;100.0;102900;;;;
2022/03/27 03:33:00;;;;;;;19.6;17.8;;;;;;;9.4;100.0;102900;;;;
2022/03/27 03:34:00;;;;;;;19.6;17.8;;;;;;;9.4;100.0;102900;;;;
2022/03/27 03:35:00;;;;;;;19.6;17.8;;;;;;;9.4;100.0;102900;;;;
2022/03/27 03:36:00;;;;;;;19.6;17.8;;;;;;;9.4;100.0;102900;;;;
2022/03/27 03:37:00;;;;;;;19.6;17.8;;;;;;;9.3;100.0;102900;;;;
2022/03/27 03:38:00;;;;;;;19.6;17.8;;;;;;;9.3;100.0;102900;;;;
2022/03/27 03:39:00;;;;;;;19.6;17.8;;;;;;;9.2;100.0;102900;;;;
2022/03/27 03:40:00;;;;;;;19.6;17.8;;;;;;;9.2;100.0;102900;;;;
2022/03/27 03:41:00;;;;;;;19.6;17.8;;;;;;;9.3;100.0;102900;;;;
2022/03/27 03:42:00;;;;;;;19.6;17.8;;;;;;;9.3;100.0;102900;;;;
2022/03/27 03:43:00;;;;;;;19.6;17.8;;;;;;;9.4;100.0;102900;;;;
2022/03/27 03:44:00;;;;;;;19.6;17.8;;;;;;;9.4;100.0;102900;;;;
2022/03/27 03:45:00;;;;;;;19.6;17.8;;;;;;;9.5;100.0;102900;;;;
2022/03/27 03:46:00;;;;;;;19.6;17.8;;;;;;;9.5;100.0;102900;;;;
2022/03/27 03:47:00;;;;;;;22.2;20.2;;;;;;;9.6;100.0;102900;;;;
2022/03/27 03:48:00;;;;;;;22.2;20.2;;;;;;;9.6;100.0;102900;;;;
2022/03/27 03:49:00;;;;;;;22.2;20.2;;;;;;;9.6;100.0;102900;;;;
2022/03/27 03:50:00;;;;;;;22.2;20.2;;;;;;;9.6;100.0;102900;;;;
2022/03/27 03:51:00;;;;;;;22.2;20.2;;;;;;;9.6;100.0;102900;;;;
2022/03/27 03:52:00;;;;;;;22.2;20.2;;;;;;;9.6;100.0;102900;;;;
2022/03/27 03:53:00;;;;;;;22.2;20.2;;;;;;;9.6;100.0;102900;;;;
2022/03/27 03:54:00;;;;;;;22.2;20.2;;;;;;;9.6;100.0;102900;;;;
2022/03/27 03:55:00;;;;;;;22.2;20.2;;;;;;;9.4;100.0;102900;;;;
2022/03/27 03:56:00;;;;;;;22.2;20.2;;;;;;;9.4;100.0;102900;;;;
2022/03/27 03:57:02;;;;;;;22.2;20.2;;;;;;;9.5;100.0;102900;;;;
2022/03/27 03:58:00;;;;;;;22.2;20.2;;;;;;;9.5;100.0;102900;;;;
2022/03/27 03:59:10;;;;;;;22.2;20.2;;;;;;;9.6;100.0;102900;;;;
2022/03/27 04:00:00;;;;;;;22.2;20.2;;;;;;;9.6;100.0;102900;;;;
2022/03/27 04:01:00;;;;;;;22.2;20.2;;;;;;;9.5;100.0;102900;;;;
2022/03/27 04:02:01;;;;;;;22.2;20.2;;;;;;;9.5;100.0;102900;;;;
2022/03/27 04:03:00;;;;;;;22.2;20.2;;;;;;;9.6;100.0;102900;;;;
2022/03/27 04:04:00;;;;;;;22.2;20.2;;;;;;;9.6;100.0;102900;;;;
2022/03/27 04:05:01;;;;;;;22.2;20.2;;;;;;;9.6;100.0;102900;;;;
2022/03/27 04:06:00;;;;;;;22.2;20.2;;;;;;;9.6;100.0;102900;;;;
2022/03/27 04:07:00;;;;;;;21.0;18.9;;;;;;;9.7;100.0;102900;;;;
2022/03/27 04:08:00;;;;;;;21.0;18.9;;;;;;;9.7;100.0;102900;;;;
2022/03/27 04:09:00;;;;;;;21.0;18.9;;;;;;;9.5;100.0;102900;;;;
2022/03/27 04:10:03;;;;;;;21.0;18.9;;;;;;;9.5;100.0;102900;;;;
2022/03/27 04:11:00;;;;;;;21.0;18.9;;;;;;;9.3;100.0;102900;;;;
2022/03/27 04:12:01;;;;;;;21.0;18.9;;;;;;;9.3;100.0;102900;;;;
2022/03/27 04:13:00;;;;;;;21.0;18.9;;;;;;;9.1;100.0;102900;;;;
2022/03/27 04:14:00;;;;;;;21.0;18.9;;;;;;;9.1;100.0;102900;;;;
2022/03/27 04:15:00;;;;;;;21.0;18.9;;;;;;;9.2;100.0;102900;;;;
2022/03/27 04:16:00;;;;;;;21.0;18.9;;;;;;;9.2;100.0;102900;;;;
2022/03/27 04:17:00;;;;;;;21.0;18.9;;;;;;;9.1;100.0;102900;;;;
2022/03/27 04:18:00;;;;;;;21.0;18.9;;;;;;;9.1;100.0;102900;;;;
2022/03/27 04:19:00;;;;;;;21.0;18.9;;;;;;;9.1;100.0;102900;;;;
2022/03/27 04:20:00;;;;;;;21.0;18.9;;;;;;;9.1;100.0;102900;;;;
2022/03/27 04:21:00;;;;;;;21.0;18.9;;;;;;;8.9;100.0;102900;;;;
2022/03/27 04:22:00;;;;;;;21.0;18.9;;;;;;;8.9;100.0;102900;;;;
2022/03/27 04:23:00;;;;;;;21.0;18.9;;;;;;;9.0;100.0;102900;;;;
2022/03/27 04:24:06;;;;;;;21.0;18.9;;;;;;;9.0;100.0;102900;;;;
2022/03/27 04:25:00;;;;;;;21.0;18.9;;;;;;;8.9;100.0;102900;;;;
2022/03/27 04:26:00;;;;;;;21.0;18.9;;;;;;;8.9;100.0;102900;;;;
2022/03/27 04:27:00;;;;;;;20.6;18.4;;;;;;;8.9;100.0;102890;;;;
2022/03/27 04:28:08;;;;;;;20.6;18.4;;;;;;;8.9;100.0;102890;;;;
2022/03/27 04:29:00;;;;;;;20.6;18.4;;;;;;;8.9;100.0;102890;;;;
2022/03/27 04:30:00;;;;;;;20.6;18.4;;;;;;;8.9;100.0;102890;;;;
2022/03/27 04:31:00;;;;;;;20.6;18.4;;;;;;;9.1;100.0;102890;;;;
2022/03/27 04:32:00;;;;;;;20.6;18.4;;;;;;;9.1;100.0;102890;;;;
2022/03/27 04:33:00;;;;;;;20.6;18.4;;;;;;;9.0;100.0;102900;;;;
2022/03/27 04:34:00;;;;;;;20.6;18.4;;;;;;;9.0;100.0;102900;;;;
2022/03/27 04:35:00;;;;;;;20.6;18.4;;;;;;;9.0;100.0;102900;;;;
2022/03/27 04:36:02;;;;;;;20.6;18.4;;;;;;;9.0;100.0;102900;;;;
2022/03/27 04:37:03;;;;;;;20.6;18.4;;;;;;;9.1;100.0;102900;;;;
2022/03/27 04:38:00;;;;;;;20.6;18.4;;;;;;;9.1;100.0;102900;;;;
2022/03/27 04:39:00;;;;;;;20.6;18.4;;;;;;;9.1;100.0;102900;;;;
2022/03/27 04:40:02;;;;;;;20.6;18.4;;;;;;;9.1;100.0;102900;;;;
2022/03/27 04:41:00;;;;;;;20.6;18.4;;;;;;;9.1;100.0;102900;;;;
2022/03/27 04:42:00;;;;;;;20.6;18.4;;;;;;;9.1;100.0;102900;;;;
2022/03/27 04:43:00;;;;;;;20.6;18.4;;;;;;;9.1;100.0;102900;;;;
2022/03/27 04:44:00;;;;;;;20.6;18.4;;;;;;;9.1;100.0;102900;;;;
2022/03/27 04:45:00;;;;;;;20.6;18.4;;;;;;;9.3;100.0;102910;;;;
2022/03/27 04:46:00;;;;;;;20.6;18.4;;;;;;;9.3;100.0;102910;;;;
2022/03/27 04:47:00;;;;;;;21.1;18.9;;;;;;;9.2;100.0;102910;;;;
2022/03/27 04:48:00;;;;;;;21.1;18.9;;;;;;;9.2;100.0;102910;;;;
2022/03/27 04:49:01;;;;;;;21.1;18.9;;;;;;;9.2;100.0;102910;;;;
2022/03/27 04:50:00;;;;;;;21.1;18.9;;;;;;;9.2;100.0;102910;;;;
2022/03/27 04:51:00;;;;;;;21.1;18.9;;;;;;;9.1;100.0;102910;;;;
2022/03/27 04:52:00;;;;;;;21.1;18.9;;;;;;;9.1;100.0;102910;;;;
2022/03/27 04:53:00;;;;;;;21.1;18.9;;;;;;;9.1;100.0;102910;;;;
2022/03/27 04:54:00;;;;;;;21.1;18.9;;;;;;;9.1;100.0;102910;;;;
2022/03/27 04:55:00;;;;;;;21.1;18.9;;;;;;;9.0;100.0;102910;;;;
2022/03/27 04:56:00;;;;;;;21.1;18.9;;;;;;;9.0;100.0;102910;;;;
2022/03/27 04:57:00;;;;;;;21.1;18.9;;;;;;;8.8;100.0;102910;;;;
2022/03/27 04:58:00;;;;;;;21.1;18.9;;;;;;;8.8;100.0;102910;;;;
2022/03/27 04:59:00;;;;;;;21.1;18.9;;;;;;;8.7;100.0;102910;;;;
2022/03/27 05:00:00;;;;;;;21.1;18.9;;;;;;;8.7;100.0;102910;;;;
2022/03/27 05:01:00;;;;;;;21.1;18.9;;;;;;;8.8;100.0;102920;;;;
2022/03/27 05:02:00;;;;;;;21.1;18.9;;;;;;;8.8;100.0;102920;;;;
2022/03/27 05:03:00;;;;;;;21.1;18.9;;;;;;;8.7;100.0;102920;;;;
2022/03/27 05:04:00;;;;;;;21.1;18.9;;;;;;;8.7;100.0;102920;;;;
2022/03/27 05:05:00;;;;;;;21.1;18.9;;;;;;;8.7;100.0;102920;;;;
2022/03/27 05:06:00;;;;;;;21.1;18.9;;;;;;;8.7;100.0;102920;;;;
2022/03/27 05:07:00;;;;;;;27.0;22.2;;;;;;;8.7;100.0;102920;;;;
2022/03/27 05:08:00;;;;;;;27.0;22.2;;;;;;;8.7;100.0;102920;;;;
2022/03/27 05:09:00;;;;;;;27.0;22.2;;;;;;;8.8;100.0;102920;;;;
2022/03/27 05:10:00;;;;;;;27.0;22.2;;;;;;;8.8;100.0;102920;;;;
2022/03/27 05:11:00;;;;;;;27.0;22.2;;;;;;;8.6;100.0;102930;;;;
2022/03/27 05:12:00;;;;;;;27.0;22.2;;;;;;;8.6;100.0;102930;;;;
2022/03/27 05:13:00;;;;;;;27.0;22.2;;;;;;;8.7;100.0;102920;;;;
2022/03/27 05:14:00;;;;;;;27.0;22.2;;;;;;;8.7;100.0;102920;;;;
2022/03/27 05:15:02;;;;;;;27.0;22.2;;;;;;;8.6;100.0;102920;;;;
2022/03/27 05:16:00;;;;;;;27.0;22.2;;;;;;;8.6;100.0;102920;;;;
2022/03/27 05:17:00;;;;;;;27.0;22.2;;;;;;;8.6;100.0;102930;;;;
2022/03/27 05:18:00;;;;;;;27.0;22.2;;;;;;;8.6;100.0;102930;;;;
2022/03/27 05:19:00;;;;;;;27.0;22.2;;;;;;;8.5;100.0;102930;;;;
2022/03/27 05:20:02;;;;;;;27.0;22.2;;;;;;;8.5;100.0;102930;;;;
2022/03/27 05:21:00;;;;;;;27.0;22.2;;;;;;;8.6;100.0;102930;;;;
2022/03/27 05:22:00;;;;;;;27.0;22.2;;;;;;;8.6;100.0;102930;;;;
2022/03/27 05:23:00;;;;;;;27.0;22.2;;;;;;;8.6;100.0;102930;;;;
2022/03/27 05:24:08;;;;;;;27.0;22.2;;;;;;;8.6;100.0;102930;;;;
2022/03/27 05:25:00;;;;;;;27.0;22.2;;;;;;;8.5;100.0;102930;;;;
2022/03/27 05:26:00;;;;;;;27.0;22.2;;;;;;;8.5;100.0;102930;;;;
2022/03/27 05:27:00;;;;;;;28.3;23.0;;;;;;;8.6;100.0;102930;;;;
2022/03/27 05:28:00;;;;;;;28.3;23.0;;;;;;;8.6;100.0;102930;;;;
2022/03/27 05:29:00;;;;;;;28.3;23.0;;;;;;;8.6;100.0;102920;;;;
2022/03/27 05:30:00;;;;;;;28.3;23.0;;;;;;;8.6;100.0;102920;;;;
2022/03/27 05:31:01;;;;;;;28.3;23.0;;;;;;;8.5;100.0;102930;;;;
2022/03/27 05:32:00;;;;;;;28.3;23.0;;;;;;;8.5;100.0;102930;;;;
2022/03/27 05:33:00;;;;;;;28.3;23.0;;;;;;;8.6;100.0;102930;;;;
2022/03/27 05:34:00;;;;;;;28.3;23.0;;;;;;;8.6;100.0;102930;;;;
2022/03/27 05:35:01;;;;;;;28.3;23.0;;;;;;;8.7;100.0;102920;;;;
2022/03/27 05:36:00;;;;;;;28.3;23.0;;;;;;;8.7;100.0;102920;;;;
2022/03/27 05:37:00;;;;;;;28.3;23.0;;;;;;;8.7;100.0;102920;;;;
2022/03/27 05:38:00;;;;;;;28.3;23.0;;;;;;;8.7;100.0;102920;;;;
2022/03/27 05:39:00;;;;;;;28.3;23.0;;;;;;;8.8;100.0;102920;;;;
2022/03/27 05:40:01;;;;;;;28.3;23.0;;;;;;;8.8;100.0;102920;;;;
2022/03/27 05:41:00;;;;;;;28.3;23.0;;;;;;;8.6;100.0;102920;;;;
2022/03/27 05:42:00;;;;;;;28.3;23.0;;;;;;;8.6;100.0;102920;;;;
2022/03/27 05:43:00;;;;;;;28.3;23.0;;;;;;;8.6;100.0;102920;;;;
2022/03/27 05:44:00;;;;;;;28.3;23.0;;;;;;;8.6;100.0;102920;;;;
2022/03/27 05:45:00;;;;;;;28.3;23.0;;;;;;;8.6;100.0;102920;;;;
2022/03/27 05:46:07;;;;;;;28.3;23.0;;;;;;;8.6;100.0;102920;;;;
2022/03/27 05:47:00;;;;;;;32.7;24.6;;;;;;;8.6;100.0;102920;;;;
2022/03/27 05:48:00;;;;;;;32.7;24.6;;;;;;;8.6;100.0;102920;;;;
2022/03/27 05:49:00;;;;;;;32.7;24.6;;;;;;;8.7;100.0;102920;;;;
2022/03/27 05:50:00;;;;;;;32.7;24.6;;;;;;;8.7;100.0;102920;;;;
2022/03/27 05:51:00;;;;;;;32.7;24.6;;;;;;;8.7;100.0;102920;;;;
2022/03/27 05:52:00;;;;;;;32.7;24.6;;;;;;;8.7;100.0;102920;;;;
2022/03/27 05:53:00;;;;;;;32.7;24.6;;;;;;;8.6;100.0;102920;;;;
2022/03/27 05:54:00;;;;;;;32.7;24.6;;;;;;;8.6;100.0;102920;;;;
2022/03/27 05:55:00;;;;;;;32.7;24.6;;;;;;;8.6;100.0;102920;;;;
2022/03/27 05:56:00;;;;;;;32.7;24.6;;;;;;;8.6;100.0;102920;;;;
2022/03/27 05:57:00;;;;;;;32.7;24.6;;;;;;;8.6;100.0;102930;;;;
2022/03/27 05:58:00;;;;;;;32.7;24.6;;;;;;;8.6;100.0;102930;;;;
2022/03/27 05:59:00;;;;;;;32.7;24.6;;;;;;;8.6;100.0;102930;;;;
2022/03/27 06:00:00;;;;;;;32.7;24.6;;;;;;;8.6;100.0;102930;;;;
2022/03/27 06:01:00;;;;;;;32.7;24.6;;;;;;;8.7;100.0;102940;;;;
2022/03/27 06:02:00;;;;;;;32.7;24.6;;;;;;;8.7;100.0;102940;;;;
2022/03/27 06:03:01;;;;;;;32.7;24.6;;;;;;;8.6;100.0;102940;;;;
2022/03/27 06:04:00;;;;;;;32.7;24.6;;;;;;;8.6;100.0;102940;;;;
2022/03/27 06:05:00;;;;;;;32.7;24.6;;;;;;;8.7;100.0;102940;;;;
2022/03/27 06:06:00;;;;;;;32.7;24.6;;;;;;;8.7;100.0;102940;;;;
2022/03/27 06:07:00;;;;;;;35.9;25.3;;;;;;;8.7;100.0;102950;;;;
2022/03/27 06:08:00;;;;;;;35.9;25.3;;;;;;;8.7;100.0;102950;;;;
2022/03/27 06:09:00;;;;;;;35.9;25.3;;;;;;;8.6;100.0;102950;;;;
2022/03/27 06:10:00;;;;;;;35.9;25.3;;;;;;;8.6;100.0;102950;;;;
2022/03/27 06:11:00;;;;;;;35.9;25.3;;;;;;;8.6;100.0;102950;;;;
2022/03/27 06:12:00;;;;;;;35.9;25.3;;;;;;;8.6;100.0;102950;;;;
2022/03/27 06:13:00;;;;;;;35.9;25.3;;;;;;;8.7;100.0;102950;;;;
2022/03/27 06:14:00;;;;;;;35.9;25.3;;;;;;;8.7;100.0;102950;;;;
2022/03/27 06:15:00;;;;;;;35.9;25.3;;;;;;;8.6;100.0;102950;;;;
2022/03/27 06:16:00;;;;;;;35.9;25.3;;;;;;;8.6;100.0;102950;;;;
2022/03/27 06:17:00;;;;;;;35.9;25.3;;;;;;;8.7;100.0;102950;;;;
2022/03/27 06:18:00;;;;;;;35.9;25.3;;;;;;;8.7;100.0;102950;;;;
2022/03/27 06:19:00;;;;;;;35.9;25.3;;;;;;;8.8;100.0;102950;;;;
2022/03/27 06:20:00;;;;;;;35.9;25.3;;;;;;;8.8;100.0;102950;;;;